sensor_id;sensor_type;location;lat;lon;timestamp;P1;durP1;ratioP1;P2;durP2;ratioP2
51927;SDS011;37953;52.806;18.270;2022-10-30T00:00:48;33.50;;;16.90;;
51927;SDS011;37953;52.806;18.270;2022-10-30T00:03:34;57.08;;;30.33;;
51927;SDS011;37953;52.806;18.270;2022-10-30T00:06:18;41.00;;;21.85;;
51927;SDS011;37953;52.806;18.270;2022-10-30T00:08:44;57.72;;;31.55;;
51927;SDS011;37953;52.806;18.270;2022-10-30T00:11:11;54.03;;;28.23;;
51927;SDS011;37953;52.806;18.270;2022-10-30T00:13:55;41.38;;;22.02;;
51927;SDS011;37953;52.806;18.270;2022-10-30T00:16:21;29.65;;;13.93;;
51927;SDS011;37953;52.806;18.270;2022-10-30T00:18:47;20.27;;;10.07;;
51927;SDS011;37953;52.806;18.270;2022-10-30T00:21:13;20.45;;;8.95;;
51927;SDS011;37953;52.806;18.270;2022-10-30T00:23:48;17.35;;;8.25;;
51927;SDS011;37953;52.806;18.270;2022-10-30T00:26:15;17.55;;;8.38;;
51927;SDS011;37953;52.806;18.270;2022-10-30T00:28:42;27.17;;;13.18;;
51927;SDS011;37953;52.806;18.270;2022-10-30T00:31:08;48.78;;;22.38;;
51927;SDS011;37953;52.806;18.270;2022-10-30T00:33:34;37.45;;;18.83;;
51927;SDS011;37953;52.806;18.270;2022-10-30T00:36:00;64.13;;;31.88;;
51927;SDS011;37953;52.806;18.270;2022-10-30T00:38:26;39.55;;;18.77;;
51927;SDS011;37953;52.806;18.270;2022-10-30T00:40:52;29.60;;;13.10;;
51927;SDS011;37953;52.806;18.270;2022-10-30T00:43:37;22.25;;;10.15;;
51927;SDS011;37953;52.806;18.270;2022-10-30T00:46:06;20.50;;;8.45;;
51927;SDS011;37953;52.806;18.270;2022-10-30T00:48:34;19.17;;;8.45;;
51927;SDS011;37953;52.806;18.270;2022-10-30T00:51:19;20.55;;;9.57;;
51927;SDS011;37953;52.806;18.270;2022-10-30T00:53:46;16.30;;;8.30;;
51927;SDS011;37953;52.806;18.270;2022-10-30T00:56:13;18.77;;;8.60;;
51927;SDS011;37953;52.806;18.270;2022-10-30T00:59:02;25.45;;;9.63;;
51927;SDS011;37953;52.806;18.270;2022-10-30T01:01:34;21.45;;;10.00;;
51927;SDS011;37953;52.806;18.270;2022-10-30T01:04:03;24.42;;;11.63;;
51927;SDS011;37953;52.806;18.270;2022-10-30T01:06:31;23.70;;;11.18;;
51927;SDS011;37953;52.806;18.270;2022-10-30T01:09:00;30.13;;;12.13;;
51927;SDS011;37953;52.806;18.270;2022-10-30T01:11:28;29.50;;;14.40;;
51927;SDS011;37953;52.806;18.270;2022-10-30T01:13:54;25.92;;;16.13;;
51927;SDS011;37953;52.806;18.270;2022-10-30T01:16:53;24.92;;;14.20;;
51927;SDS011;37953;52.806;18.270;2022-10-30T01:26:37;14.95;;;8.18;;
51927;SDS011;37953;52.806;18.270;2022-10-30T01:29:11;23.58;;;9.68;;
51927;SDS011;37953;52.806;18.270;2022-10-30T01:37:18;19.05;;;8.90;;
51927;SDS011;37953;52.806;18.270;2022-10-30T01:40:00;21.75;;;9.60;;
51927;SDS011;37953;52.806;18.270;2022-10-30T01:57:00;24.20;;;10.13;;
51927;SDS011;37953;52.806;18.270;2022-10-30T01:59:43;24.38;;;11.35;;
51927;SDS011;37953;52.806;18.270;2022-10-30T02:02:30;24.05;;;11.00;;
51927;SDS011;37953;52.806;18.270;2022-10-30T02:04:57;33.90;;;14.63;;
51927;SDS011;37953;52.806;18.270;2022-10-30T02:07:24;30.23;;;14.32;;
51927;SDS011;37953;52.806;18.270;2022-10-30T02:09:56;24.67;;;12.02;;
51927;SDS011;37953;52.806;18.270;2022-10-30T02:12:40;26.60;;;11.23;;
51927;SDS011;37953;52.806;18.270;2022-10-30T02:15:13;22.95;;;11.07;;
51927;SDS011;37953;52.806;18.270;2022-10-30T02:17:40;23.48;;;10.63;;
51927;SDS011;37953;52.806;18.270;2022-10-30T02:20:12;23.23;;;11.18;;
51927;SDS011;37953;52.806;18.270;2022-10-30T02:22:40;22.23;;;10.38;;
51927;SDS011;37953;52.806;18.270;2022-10-30T02:25:06;24.42;;;11.50;;
51927;SDS011;37953;52.806;18.270;2022-10-30T02:27:32;31.55;;;13.20;;
51927;SDS011;37953;52.806;18.270;2022-10-30T02:29:59;33.75;;;18.13;;
51927;SDS011;37953;52.806;18.270;2022-10-30T02:32:24;45.63;;;22.52;;
51927;SDS011;37953;52.806;18.270;2022-10-30T02:34:50;46.08;;;22.13;;
51927;SDS011;37953;52.806;18.270;2022-10-30T02:37:19;39.92;;;22.60;;
51927;SDS011;37953;52.806;18.270;2022-10-30T02:40:04;30.85;;;15.43;;
51927;SDS011;37953;52.806;18.270;2022-10-30T02:42:51;27.88;;;14.40;;
51927;SDS011;37953;52.806;18.270;2022-10-30T02:45:18;32.17;;;16.65;;
51927;SDS011;37953;52.806;18.270;2022-10-30T02:47:44;27.80;;;13.50;;
51927;SDS011;37953;52.806;18.270;2022-10-30T02:50:10;27.17;;;13.32;;
51927;SDS011;37953;52.806;18.270;2022-10-30T02:52:36;33.00;;;13.70;;
51927;SDS011;37953;52.806;18.270;2022-10-30T02:55:21;31.05;;;14.35;;
51927;SDS011;37953;52.806;18.270;2022-10-30T02:57:47;26.70;;;12.18;;
51927;SDS011;37953;52.806;18.270;2022-10-30T03:00:31;24.33;;;11.63;;
51927;SDS011;37953;52.806;18.270;2022-10-30T03:03:03;25.88;;;12.35;;
51927;SDS011;37953;52.806;18.270;2022-10-30T03:05:48;25.27;;;12.48;;
51927;SDS011;37953;52.806;18.270;2022-10-30T03:08:20;27.95;;;11.90;;
51927;SDS011;37953;52.806;18.270;2022-10-30T03:10:46;19.15;;;9.90;;
51927;SDS011;37953;52.806;18.270;2022-10-30T03:13:11;20.25;;;9.40;;
51927;SDS011;37953;52.806;18.270;2022-10-30T03:15:37;19.25;;;8.60;;
51927;SDS011;37953;52.806;18.270;2022-10-30T03:18:03;28.63;;;13.57;;
51927;SDS011;37953;52.806;18.270;2022-10-30T03:20:29;26.65;;;14.15;;
51927;SDS011;37953;52.806;18.270;2022-10-30T03:22:55;23.38;;;11.10;;
51927;SDS011;37953;52.806;18.270;2022-10-30T03:25:21;17.38;;;9.00;;
51927;SDS011;37953;52.806;18.270;2022-10-30T03:28:06;21.38;;;9.13;;
51927;SDS011;37953;52.806;18.270;2022-10-30T03:30:50;19.20;;;8.75;;
51927;SDS011;37953;52.806;18.270;2022-10-30T03:33:40;21.38;;;10.00;;
51927;SDS011;37953;52.806;18.270;2022-10-30T03:36:25;18.67;;;9.30;;
51927;SDS011;37953;52.806;18.270;2022-10-30T03:38:51;21.45;;;11.55;;
51927;SDS011;37953;52.806;18.270;2022-10-30T03:41:17;24.50;;;12.07;;
51927;SDS011;37953;52.806;18.270;2022-10-30T03:43:43;21.33;;;10.40;;
51927;SDS011;37953;52.806;18.270;2022-10-30T03:46:09;16.27;;;8.55;;
51927;SDS011;37953;52.806;18.270;2022-10-30T03:48:35;17.08;;;8.10;;
51927;SDS011;37953;52.806;18.270;2022-10-30T03:51:08;19.02;;;8.57;;
51927;SDS011;37953;52.806;18.270;2022-10-30T03:53:34;13.68;;;6.90;;
51927;SDS011;37953;52.806;18.270;2022-10-30T03:56:18;17.02;;;8.23;;
51927;SDS011;37953;52.806;18.270;2022-10-30T03:58:44;20.15;;;8.68;;
51927;SDS011;37953;52.806;18.270;2022-10-30T04:01:28;21.58;;;8.95;;
51927;SDS011;37953;52.806;18.270;2022-10-30T04:03:55;15.60;;;8.65;;
51927;SDS011;37953;52.806;18.270;2022-10-30T04:06:20;15.20;;;7.88;;
51927;SDS011;37953;52.806;18.270;2022-10-30T04:08:46;12.43;;;7.88;;
51927;SDS011;37953;52.806;18.270;2022-10-30T04:11:12;22.85;;;9.05;;
51927;SDS011;37953;52.806;18.270;2022-10-30T04:13:38;19.08;;;8.98;;
51927;SDS011;37953;52.806;18.270;2022-10-30T04:16:04;18.60;;;10.32;;
51927;SDS011;37953;52.806;18.270;2022-10-30T04:18:31;21.15;;;11.07;;
51927;SDS011;37953;52.806;18.270;2022-10-30T04:21:00;27.70;;;12.98;;
51927;SDS011;37953;52.806;18.270;2022-10-30T04:23:26;18.40;;;9.70;;
51927;SDS011;37953;52.806;18.270;2022-10-30T04:25:52;18.08;;;8.75;;
51927;SDS011;37953;52.806;18.270;2022-10-30T04:28:18;16.92;;;9.60;;
51927;SDS011;37953;52.806;18.270;2022-10-30T04:30:45;15.43;;;8.25;;
51927;SDS011;37953;52.806;18.270;2022-10-30T04:33:30;15.75;;;7.40;;
51927;SDS011;37953;52.806;18.270;2022-10-30T04:35:56;13.55;;;7.82;;
51927;SDS011;37953;52.806;18.270;2022-10-30T04:38:22;14.10;;;7.95;;
51927;SDS011;37953;52.806;18.270;2022-10-30T04:40:48;22.13;;;8.88;;
51927;SDS011;37953;52.806;18.270;2022-10-30T04:43:14;17.80;;;9.40;;
51927;SDS011;37953;52.806;18.270;2022-10-30T04:45:41;16.35;;;9.18;;
51927;SDS011;37953;52.806;18.270;2022-10-30T04:48:14;18.48;;;9.27;;
51927;SDS011;37953;52.806;18.270;2022-10-30T04:51:05;15.88;;;9.65;;
51927;SDS011;37953;52.806;18.270;2022-10-30T04:53:31;16.10;;;9.45;;
51927;SDS011;37953;52.806;18.270;2022-10-30T04:55:57;19.48;;;9.82;;
51927;SDS011;37953;52.806;18.270;2022-10-30T04:58:23;20.23;;;10.70;;
51927;SDS011;37953;52.806;18.270;2022-10-30T05:01:07;15.00;;;9.88;;
51927;SDS011;37953;52.806;18.270;2022-10-30T05:03:33;15.73;;;10.40;;
51927;SDS011;37953;52.806;18.270;2022-10-30T05:06:06;15.60;;;9.85;;
51927;SDS011;37953;52.806;18.270;2022-10-30T05:08:59;19.63;;;10.65;;
51927;SDS011;37953;52.806;18.270;2022-10-30T05:11:26;19.50;;;10.95;;
51927;SDS011;37953;52.806;18.270;2022-10-30T05:13:51;22.85;;;11.63;;
51927;SDS011;37953;52.806;18.270;2022-10-30T05:16:18;24.92;;;11.52;;
51927;SDS011;37953;52.806;18.270;2022-10-30T05:18:43;27.52;;;14.65;;
51927;SDS011;37953;52.806;18.270;2022-10-30T05:21:09;21.77;;;13.18;;
51927;SDS011;37953;52.806;18.270;2022-10-30T05:23:35;23.23;;;11.43;;
51927;SDS011;37953;52.806;18.270;2022-10-30T05:26:19;21.98;;;11.52;;
51927;SDS011;37953;52.806;18.270;2022-10-30T05:28:45;22.10;;;11.50;;
51927;SDS011;37953;52.806;18.270;2022-10-30T05:31:30;23.73;;;12.18;;
51927;SDS011;37953;52.806;18.270;2022-10-30T05:34:13;21.95;;;11.32;;
51927;SDS011;37953;52.806;18.270;2022-10-30T05:36:40;26.63;;;12.13;;
51927;SDS011;37953;52.806;18.270;2022-10-30T05:39:05;24.88;;;14.00;;
51927;SDS011;37953;52.806;18.270;2022-10-30T05:41:31;20.40;;;12.23;;
51927;SDS011;37953;52.806;18.270;2022-10-30T05:43:57;26.85;;;14.15;;
51927;SDS011;37953;52.806;18.270;2022-10-30T05:46:23;27.55;;;14.20;;
51927;SDS011;37953;52.806;18.270;2022-10-30T05:48:49;26.27;;;14.00;;
51927;SDS011;37953;52.806;18.270;2022-10-30T05:51:33;24.63;;;13.18;;
51927;SDS011;37953;52.806;18.270;2022-10-30T05:53:59;23.50;;;12.93;;
51927;SDS011;37953;52.806;18.270;2022-10-30T05:56:25;22.92;;;12.63;;
51927;SDS011;37953;52.806;18.270;2022-10-30T05:59:09;21.52;;;12.68;;
51927;SDS011;37953;52.806;18.270;2022-10-30T06:01:35;26.20;;;13.90;;
51927;SDS011;37953;52.806;18.270;2022-10-30T06:04:01;22.70;;;13.00;;
51927;SDS011;37953;52.806;18.270;2022-10-30T06:06:45;27.38;;;13.48;;
51927;SDS011;37953;52.806;18.270;2022-10-30T06:09:11;25.38;;;13.43;;
51927;SDS011;37953;52.806;18.270;2022-10-30T06:11:37;24.85;;;14.02;;
51927;SDS011;37953;52.806;18.270;2022-10-30T06:14:03;22.63;;;14.27;;
51927;SDS011;37953;52.806;18.270;2022-10-30T06:16:29;25.15;;;14.63;;
51927;SDS011;37953;52.806;18.270;2022-10-30T06:18:55;33.28;;;15.75;;
51927;SDS011;37953;52.806;18.270;2022-10-30T06:21:21;29.42;;;15.75;;
51927;SDS011;37953;52.806;18.270;2022-10-30T06:23:47;28.88;;;17.98;;
51927;SDS011;37953;52.806;18.270;2022-10-30T06:26:13;38.05;;;17.73;;
51927;SDS011;37953;52.806;18.270;2022-10-30T06:28:40;29.42;;;17.38;;
51927;SDS011;37953;52.806;18.270;2022-10-30T06:31:05;28.77;;;16.77;;
51927;SDS011;37953;52.806;18.270;2022-10-30T06:33:31;31.23;;;16.75;;
51927;SDS011;37953;52.806;18.270;2022-10-30T06:35:57;29.08;;;16.15;;
51927;SDS011;37953;52.806;18.270;2022-10-30T06:38:23;26.90;;;16.27;;
51927;SDS011;37953;52.806;18.270;2022-10-30T06:40:49;29.27;;;15.07;;
51927;SDS011;37953;52.806;18.270;2022-10-30T06:43:15;30.48;;;16.38;;
51927;SDS011;37953;52.806;18.270;2022-10-30T06:45:41;33.88;;;15.75;;
51927;SDS011;37953;52.806;18.270;2022-10-30T06:48:07;28.33;;;15.30;;
51927;SDS011;37953;52.806;18.270;2022-10-30T06:50:53;28.40;;;15.35;;
51927;SDS011;37953;52.806;18.270;2022-10-30T06:53:20;27.02;;;15.30;;
51927;SDS011;37953;52.806;18.270;2022-10-30T06:56:04;31.55;;;16.15;;
51927;SDS011;37953;52.806;18.270;2022-10-30T06:58:30;34.28;;;16.02;;
51927;SDS011;37953;52.806;18.270;2022-10-30T07:00:58;31.25;;;16.83;;
51927;SDS011;37953;52.806;18.270;2022-10-30T07:03:25;30.85;;;15.70;;
51927;SDS011;37953;52.806;18.270;2022-10-30T07:05:51;30.27;;;15.77;;
51927;SDS011;37953;52.806;18.270;2022-10-30T07:08:35;30.58;;;15.27;;
51927;SDS011;37953;52.806;18.270;2022-10-30T07:11:01;35.58;;;14.75;;
51927;SDS011;37953;52.806;18.270;2022-10-30T07:13:45;35.83;;;15.82;;
51927;SDS011;37953;52.806;18.270;2022-10-30T07:16:18;29.63;;;14.27;;
51927;SDS011;37953;52.806;18.270;2022-10-30T07:18:43;30.08;;;15.43;;
51927;SDS011;37953;52.806;18.270;2022-10-30T07:21:09;25.58;;;14.23;;
51927;SDS011;37953;52.806;18.270;2022-10-30T07:23:53;27.13;;;14.88;;
51927;SDS011;37953;52.806;18.270;2022-10-30T07:26:20;28.95;;;15.38;;
51927;SDS011;37953;52.806;18.270;2022-10-30T07:29:04;26.25;;;15.82;;
51927;SDS011;37953;52.806;18.270;2022-10-30T07:31:31;33.13;;;16.50;;
51927;SDS011;37953;52.806;18.270;2022-10-30T07:33:57;30.98;;;15.80;;
51927;SDS011;37953;52.806;18.270;2022-10-30T07:36:23;34.83;;;16.48;;
51927;SDS011;37953;52.806;18.270;2022-10-30T07:39:07;29.42;;;16.42;;
51927;SDS011;37953;52.806;18.270;2022-10-30T07:41:33;34.15;;;16.35;;
51927;SDS011;37953;52.806;18.270;2022-10-30T07:43:59;34.38;;;15.90;;
51927;SDS011;37953;52.806;18.270;2022-10-30T07:46:25;26.63;;;15.73;;
51927;SDS011;37953;52.806;18.270;2022-10-30T07:48:51;31.23;;;17.10;;
51927;SDS011;37953;52.806;18.270;2022-10-30T07:51:17;31.30;;;15.68;;
51927;SDS011;37953;52.806;18.270;2022-10-30T07:54:02;34.50;;;16.38;;
51927;SDS011;37953;52.806;18.270;2022-10-30T07:56:34;32.60;;;16.15;;
51927;SDS011;37953;52.806;18.270;2022-10-30T07:59:00;32.47;;;14.45;;
51927;SDS011;37953;52.806;18.270;2022-10-30T08:01:26;29.98;;;14.80;;
51927;SDS011;37953;52.806;18.270;2022-10-30T08:03:52;34.10;;;15.18;;
51927;SDS011;37953;52.806;18.270;2022-10-30T08:06:18;28.65;;;14.27;;
51927;SDS011;37953;52.806;18.270;2022-10-30T08:08:44;28.80;;;14.70;;
51927;SDS011;37953;52.806;18.270;2022-10-30T08:11:10;35.28;;;15.30;;
51927;SDS011;37953;52.806;18.270;2022-10-30T08:13:35;32.67;;;15.30;;
51927;SDS011;37953;52.806;18.270;2022-10-30T08:16:01;28.38;;;13.63;;
51927;SDS011;37953;52.806;18.270;2022-10-30T08:18:27;34.72;;;15.52;;
51927;SDS011;37953;52.806;18.270;2022-10-30T08:21:11;32.58;;;14.43;;
51927;SDS011;37953;52.806;18.270;2022-10-30T08:23:38;28.80;;;14.55;;
51927;SDS011;37953;52.806;18.270;2022-10-30T08:26:04;23.48;;;13.38;;
51927;SDS011;37953;52.806;18.270;2022-10-30T08:28:30;28.40;;;15.10;;
51927;SDS011;37953;52.806;18.270;2022-10-30T08:30:57;29.58;;;16.30;;
51927;SDS011;37953;52.806;18.270;2022-10-30T08:33:23;34.05;;;16.23;;
51927;SDS011;37953;52.806;18.270;2022-10-30T08:36:08;30.92;;;14.98;;
51927;SDS011;37953;52.806;18.270;2022-10-30T08:38:34;27.92;;;15.10;;
51927;SDS011;37953;52.806;18.270;2022-10-30T08:41:00;31.65;;;17.63;;
51927;SDS011;37953;52.806;18.270;2022-10-30T08:43:28;34.35;;;17.75;;
51927;SDS011;37953;52.806;18.270;2022-10-30T08:45:56;32.60;;;17.00;;
51927;SDS011;37953;52.806;18.270;2022-10-30T08:48:22;35.38;;;18.80;;
51927;SDS011;37953;52.806;18.270;2022-10-30T08:50:48;33.55;;;17.23;;
51927;SDS011;37953;52.806;18.270;2022-10-30T08:53:14;37.35;;;19.48;;
51927;SDS011;37953;52.806;18.270;2022-10-30T08:55:59;34.47;;;18.25;;
51927;SDS011;37953;52.806;18.270;2022-10-30T08:58:25;33.03;;;18.70;;
51927;SDS011;37953;52.806;18.270;2022-10-30T09:00:51;36.55;;;19.17;;
51927;SDS011;37953;52.806;18.270;2022-10-30T09:03:16;36.90;;;18.75;;
51927;SDS011;37953;52.806;18.270;2022-10-30T09:05:43;34.20;;;17.33;;
51927;SDS011;37953;52.806;18.270;2022-10-30T09:08:08;31.65;;;17.55;;
51927;SDS011;37953;52.806;18.270;2022-10-30T09:10:35;31.25;;;17.80;;
51927;SDS011;37953;52.806;18.270;2022-10-30T09:13:01;42.60;;;18.52;;
51927;SDS011;37953;52.806;18.270;2022-10-30T09:15:28;29.70;;;16.20;;
51927;SDS011;37953;52.806;18.270;2022-10-30T09:18:12;32.60;;;15.88;;
51927;SDS011;37953;52.806;18.270;2022-10-30T09:20:38;29.52;;;15.82;;
51927;SDS011;37953;52.806;18.270;2022-10-30T09:23:04;31.13;;;15.80;;
51927;SDS011;37953;52.806;18.270;2022-10-30T09:25:30;31.58;;;15.63;;
51927;SDS011;37953;52.806;18.270;2022-10-30T09:27:59;30.98;;;15.15;;
51927;SDS011;37953;52.806;18.270;2022-10-30T09:30:25;29.17;;;15.10;;
51927;SDS011;37953;52.806;18.270;2022-10-30T09:35:29;32.13;;;15.20;;
51927;SDS011;37953;52.806;18.270;2022-10-30T09:38:15;31.73;;;15.35;;
51927;SDS011;37953;52.806;18.270;2022-10-30T09:41:04;26.48;;;15.05;;
51927;SDS011;37953;52.806;18.270;2022-10-30T09:43:55;25.95;;;15.75;;
51927;SDS011;37953;52.806;18.270;2022-10-30T09:50:00;45.55;;;19.75;;
51927;SDS011;37953;52.806;18.270;2022-10-30T09:52:53;48.25;;;21.10;;
51927;SDS011;37953;52.806;18.270;2022-10-30T09:58:40;42.45;;;20.50;;
51927;SDS011;37953;52.806;18.270;2022-10-30T10:01:18;40.13;;;19.70;;
51927;SDS011;37953;52.806;18.270;2022-10-30T10:07:26;35.78;;;18.27;;
51927;SDS011;37953;52.806;18.270;2022-10-30T10:10:12;33.45;;;17.48;;
51927;SDS011;37953;52.806;18.270;2022-10-30T10:12:47;34.38;;;17.67;;
51927;SDS011;37953;52.806;18.270;2022-10-30T10:21:43;39.53;;;19.77;;
51927;SDS011;37953;52.806;18.270;2022-10-30T10:24:35;35.67;;;19.20;;
51927;SDS011;37953;52.806;18.270;2022-10-30T10:30:24;39.35;;;19.92;;
51927;SDS011;37953;52.806;18.270;2022-10-30T10:33:22;41.70;;;19.50;;
51927;SDS011;37953;52.806;18.270;2022-10-30T10:48:46;40.42;;;20.85;;
51927;SDS011;37953;52.806;18.270;2022-10-30T10:54:02;41.17;;;22.75;;
51927;SDS011;37953;52.806;18.270;2022-10-30T10:56:37;39.70;;;22.02;;
51927;SDS011;37953;52.806;18.270;2022-10-30T10:59:11;39.13;;;21.80;;
51927;SDS011;37953;52.806;18.270;2022-10-30T11:04:48;33.30;;;19.95;;
51927;SDS011;37953;52.806;18.270;2022-10-30T11:07:23;41.72;;;20.30;;
51927;SDS011;37953;52.806;18.270;2022-10-30T11:09:55;41.13;;;20.13;;
51927;SDS011;37953;52.806;18.270;2022-10-30T11:12:40;38.72;;;19.15;;
51927;SDS011;37953;52.806;18.270;2022-10-30T11:18:06;37.83;;;19.65;;
51927;SDS011;37953;52.806;18.270;2022-10-30T11:25:58;33.40;;;18.63;;
51927;SDS011;37953;52.806;18.270;2022-10-30T11:31:32;40.70;;;22.23;;
51927;SDS011;37953;52.806;18.270;2022-10-30T11:37:27;47.45;;;22.27;;
51927;SDS011;37953;52.806;18.270;2022-10-30T11:42:53;41.58;;;22.38;;
51927;SDS011;37953;52.806;18.270;2022-10-30T11:45:32;46.00;;;23.17;;
51927;SDS011;37953;52.806;18.270;2022-10-30T11:48:26;41.95;;;23.05;;
51927;SDS011;37953;52.806;18.270;2022-10-30T11:51:15;45.65;;;23.38;;
51927;SDS011;37953;52.806;18.270;2022-10-30T11:54:03;40.38;;;22.98;;
51927;SDS011;37953;52.806;18.270;2022-10-30T11:56:30;48.25;;;23.80;;
51927;SDS011;37953;52.806;18.270;2022-10-30T11:58:58;47.00;;;24.27;;
51927;SDS011;37953;52.806;18.270;2022-10-30T12:01:33;40.60;;;25.33;;
51927;SDS011;37953;52.806;18.270;2022-10-30T12:07:07;46.83;;;26.92;;
51927;SDS011;37953;52.806;18.270;2022-10-30T12:09:43;46.45;;;25.38;;
51927;SDS011;37953;52.806;18.270;2022-10-30T12:15:25;47.58;;;25.35;;
51927;SDS011;37953;52.806;18.270;2022-10-30T12:17:59;51.10;;;26.48;;
51927;SDS011;37953;52.806;18.270;2022-10-30T12:20:27;45.42;;;24.75;;
51927;SDS011;37953;52.806;18.270;2022-10-30T12:23:16;43.53;;;22.85;;
51927;SDS011;37953;52.806;18.270;2022-10-30T12:25:46;40.42;;;21.88;;
51927;SDS011;37953;52.806;18.270;2022-10-30T12:28:14;40.53;;;21.65;;
51927;SDS011;37953;52.806;18.270;2022-10-30T12:30:49;40.13;;;22.20;;
51927;SDS011;37953;52.806;18.270;2022-10-30T12:38:28;34.65;;;17.58;;
51927;SDS011;37953;52.806;18.270;2022-10-30T12:43:34;45.78;;;19.80;;
51927;SDS011;37953;52.806;18.270;2022-10-30T12:46:26;38.03;;;19.88;;
51927;SDS011;37953;52.806;18.270;2022-10-30T12:54:56;35.67;;;18.65;;
51927;SDS011;37953;52.806;18.270;2022-10-30T12:57:27;38.35;;;17.45;;
51927;SDS011;37953;52.806;18.270;2022-10-30T13:02:45;36.15;;;18.65;;
51927;SDS011;37953;52.806;18.270;2022-10-30T13:05:52;37.83;;;16.65;;
51927;SDS011;37953;52.806;18.270;2022-10-30T13:11:02;39.20;;;18.13;;
51927;SDS011;37953;52.806;18.270;2022-10-30T13:13:48;37.20;;;18.38;;
51927;SDS011;37953;52.806;18.270;2022-10-30T13:16:35;34.45;;;18.27;;
51927;SDS011;37953;52.806;18.270;2022-10-30T13:19:01;38.28;;;17.75;;
51927;SDS011;37953;52.806;18.270;2022-10-30T13:21:42;34.80;;;17.80;;
51927;SDS011;37953;52.806;18.270;2022-10-30T13:24:14;40.05;;;17.92;;
51927;SDS011;37953;52.806;18.270;2022-10-30T13:27:21;41.92;;;18.08;;
51927;SDS011;37953;52.806;18.270;2022-10-30T13:30:04;36.97;;;17.88;;
51927;SDS011;37953;52.806;18.270;2022-10-30T13:33:03;40.70;;;18.02;;
51927;SDS011;37953;52.806;18.270;2022-10-30T13:44:34;44.13;;;19.88;;
51927;SDS011;37953;52.806;18.270;2022-10-30T13:53:10;47.45;;;21.90;;
51927;SDS011;37953;52.806;18.270;2022-10-30T13:55:48;45.50;;;22.50;;
51927;SDS011;37953;52.806;18.270;2022-10-30T13:58:18;42.85;;;21.02;;
51927;SDS011;37953;52.806;18.270;2022-10-30T14:01:00;42.30;;;23.05;;
51927;SDS011;37953;52.806;18.270;2022-10-30T14:20:55;51.25;;;25.15;;
51927;SDS011;37953;52.806;18.270;2022-10-30T14:23:28;51.65;;;26.88;;
51927;SDS011;37953;52.806;18.270;2022-10-30T14:28:36;41.58;;;25.25;;
51927;SDS011;37953;52.806;18.270;2022-10-30T14:31:08;49.67;;;24.17;;
51927;SDS011;37953;52.806;18.270;2022-10-30T14:50:00;50.10;;;23.88;;
51927;SDS011;37953;52.806;18.270;2022-10-30T14:55:37;50.45;;;24.35;;
51927;SDS011;37953;52.806;18.270;2022-10-30T14:58:33;41.25;;;23.95;;
51927;SDS011;37953;52.806;18.270;2022-10-30T15:01:38;57.15;;;25.80;;
51927;SDS011;37953;52.806;18.270;2022-10-30T15:13:56;45.55;;;26.88;;
51927;SDS011;37953;52.806;18.270;2022-10-30T15:16:27;58.17;;;28.45;;
51927;SDS011;37953;52.806;18.270;2022-10-30T15:18:58;50.53;;;27.52;;
51927;SDS011;37953;52.806;18.270;2022-10-30T15:21:47;53.03;;;26.80;;
51927;SDS011;37953;52.806;18.270;2022-10-30T15:24:35;51.25;;;26.08;;
51927;SDS011;37953;52.806;18.270;2022-10-30T15:27:13;51.42;;;26.63;;
51927;SDS011;37953;52.806;18.270;2022-10-30T15:29:45;54.92;;;27.17;;
51927;SDS011;37953;52.806;18.270;2022-10-30T15:32:39;52.65;;;27.02;;
51927;SDS011;37953;52.806;18.270;2022-10-30T15:35:09;55.17;;;26.52;;
51927;SDS011;37953;52.806;18.270;2022-10-30T15:38:04;49.42;;;25.73;;
51927;SDS011;37953;52.806;18.270;2022-10-30T15:40:37;54.40;;;26.77;;
51927;SDS011;37953;52.806;18.270;2022-10-30T15:43:05;56.28;;;27.27;;
51927;SDS011;37953;52.806;18.270;2022-10-30T15:45:37;47.00;;;25.38;;
51927;SDS011;37953;52.806;18.270;2022-10-30T15:53:39;45.85;;;25.33;;
51927;SDS011;37953;52.806;18.270;2022-10-30T15:58:53;52.70;;;26.38;;
51927;SDS011;37953;52.806;18.270;2022-10-30T16:01:30;53.35;;;26.08;;
51927;SDS011;37953;52.806;18.270;2022-10-30T16:03:56;50.60;;;26.30;;
51927;SDS011;37953;52.806;18.270;2022-10-30T16:06:23;55.83;;;26.77;;
51927;SDS011;37953;52.806;18.270;2022-10-30T16:08:54;50.28;;;27.48;;
51927;SDS011;37953;52.806;18.270;2022-10-30T16:11:21;50.35;;;26.75;;
51927;SDS011;37953;52.806;18.270;2022-10-30T16:13:49;52.03;;;28.55;;
51927;SDS011;37953;52.806;18.270;2022-10-30T16:16:18;51.00;;;29.08;;
51927;SDS011;37953;52.806;18.270;2022-10-30T16:18:47;55.65;;;31.20;;
51927;SDS011;37953;52.806;18.270;2022-10-30T16:21:32;59.15;;;31.50;;
51927;SDS011;37953;52.806;18.270;2022-10-30T16:24:04;62.30;;;32.45;;
51927;SDS011;37953;52.806;18.270;2022-10-30T16:26:32;61.92;;;30.15;;
51927;SDS011;37953;52.806;18.270;2022-10-30T16:29:25;57.60;;;29.92;;
51927;SDS011;37953;52.806;18.270;2022-10-30T16:31:52;61.15;;;31.40;;
51927;SDS011;37953;52.806;18.270;2022-10-30T16:34:23;65.20;;;32.83;;
51927;SDS011;37953;52.806;18.270;2022-10-30T16:36:56;58.50;;;30.83;;
51927;SDS011;37953;52.806;18.270;2022-10-30T16:39:24;59.13;;;30.33;;
51927;SDS011;37953;52.806;18.270;2022-10-30T16:41:55;59.90;;;30.90;;
51927;SDS011;37953;52.806;18.270;2022-10-30T16:44:28;63.40;;;30.25;;
51927;SDS011;37953;52.806;18.270;2022-10-30T16:49:42;62.00;;;31.75;;
51927;SDS011;37953;52.806;18.270;2022-10-30T16:52:15;62.10;;;32.47;;
51927;SDS011;37953;52.806;18.270;2022-10-30T16:54:59;63.85;;;32.63;;
51927;SDS011;37953;52.806;18.270;2022-10-30T16:57:35;69.30;;;36.50;;
51927;SDS011;37953;52.806;18.270;2022-10-30T17:00:06;69.47;;;36.47;;
51927;SDS011;37953;52.806;18.270;2022-10-30T17:02:51;70.35;;;38.08;;
51927;SDS011;37953;52.806;18.270;2022-10-30T17:10:34;83.32;;;43.85;;
51927;SDS011;37953;52.806;18.270;2022-10-30T17:18:47;90.07;;;44.72;;
51927;SDS011;37953;52.806;18.270;2022-10-30T17:21:16;92.63;;;45.45;;
51927;SDS011;37953;52.806;18.270;2022-10-30T17:23:51;88.75;;;47.30;;
51927;SDS011;37953;52.806;18.270;2022-10-30T17:26:20;81.50;;;45.55;;
51927;SDS011;37953;52.806;18.270;2022-10-30T17:28:47;81.15;;;44.15;;
51927;SDS011;37953;52.806;18.270;2022-10-30T17:36:27;64.50;;;30.15;;
51927;SDS011;37953;52.806;18.270;2022-10-30T17:38:53;66.35;;;30.52;;
51927;SDS011;37953;52.806;18.270;2022-10-30T17:41:19;67.88;;;30.95;;
51927;SDS011;37953;52.806;18.270;2022-10-30T17:43:51;77.18;;;33.53;;
51927;SDS011;37953;52.806;18.270;2022-10-30T17:46:32;65.18;;;30.40;;
51927;SDS011;37953;52.806;18.270;2022-10-30T17:48:58;65.47;;;28.30;;
51927;SDS011;37953;52.806;18.270;2022-10-30T17:51:25;77.85;;;33.53;;
51927;SDS011;37953;52.806;18.270;2022-10-30T17:53:51;86.50;;;37.50;;
51927;SDS011;37953;52.806;18.270;2022-10-30T17:56:19;87.80;;;37.88;;
51927;SDS011;37953;52.806;18.270;2022-10-30T17:59:06;71.55;;;32.83;;
51927;SDS011;37953;52.806;18.270;2022-10-30T18:01:32;73.78;;;33.17;;
51927;SDS011;37953;52.806;18.270;2022-10-30T18:03:58;65.47;;;32.15;;